Accueil
METAR-TAF:

METAR-TAF

Aéroports :

Marseille, France

Aéroport de Marseille Provence

latitude: 43-27N, longitude: 005-14E, altitude: 6 m

Observation

Le bulletin a été fait il y a 23 minutes, à 09:30 UTC
Vent 6 kt de ouest/sud-ouest
Température 28°C
Humidité 42%
Pression 1018 hPa
Visibilité 10 km ou plus
pas de nuages en-dessous de 1500 mètres et pas de cumulonimbus.

METAR: LFML 170930Z AUTO 24006KT CAVOK 28/14 Q1018 NOSIG

Heure: 11:53 (09:53 UTC)

Prévision

Le bulletin a été fait il y a 1 heure et 53 minutes, à 08:00 UTC
Prévision valable du 17 à 09 UTC au 18 à 15 UTC
Vent 13 kt de ouest/sud-ouest
Visibilité 10 km ou plus
pas de nuages en-dessous de 1500 mètres et pas de cumulonimbus.
Temporairement
du 17 à 20 UTC au 18 à 11 UTC
Vent 3 kt de direction variable

TAF: LFML 170800Z 1709/1815 24013KT CAVOK TEMPO 1720/1811 VRB03KT TX33/1712Z TN22/1803Z

Observations et prévisions météorologiques de plus de 4000 aéroports (messages METAR et TAF).

Les stations disponibles sont représentées par des disques jaunes et rouges sur la carte.

Passer la souris dessus pour voir le nom de la station.

Cliquer dessus pour voir les observations et prévisions météorologiques.

Pour changer de carte: cliquez sur les boutons verts avec une croix noire pour zoomer, sur le bouton vert avec un tiret pour effectuer un zoom arrière, ou sur les flèches vertes pour les cartes adjacentes.


METAR-TAF: